sensor_id;sensor_type;location;lat;lon;timestamp;P1;durP1;ratioP1;P2;durP2;ratioP2
14191;SDS011;7177;48.572;7.838;2023-11-21T00:00:48;13.23;;;3.63;;
14191;SDS011;7177;48.572;7.838;2023-11-21T00:03:14;11.70;;;3.83;;
14191;SDS011;7177;48.572;7.838;2023-11-21T00:05:40;12.13;;;3.53;;
14191;SDS011;7177;48.572;7.838;2023-11-21T00:08:07;13.13;;;3.83;;
14191;SDS011;7177;48.572;7.838;2023-11-21T00:10:33;8.17;;;2.90;;
14191;SDS011;7177;48.572;7.838;2023-11-21T00:12:59;10.23;;;3.30;;
14191;SDS011;7177;48.572;7.838;2023-11-21T00:15:27;11.63;;;3.83;;
14191;SDS011;7177;48.572;7.838;2023-11-21T00:17:53;8.60;;;3.03;;
14191;SDS011;7177;48.572;7.838;2023-11-21T00:20:18;9.67;;;3.30;;
14191;SDS011;7177;48.572;7.838;2023-11-21T00:22:44;13.87;;;3.80;;
14191;SDS011;7177;48.572;7.838;2023-11-21T00:25:10;13.60;;;3.60;;
14191;SDS011;7177;48.572;7.838;2023-11-21T00:27:36;14.13;;;3.77;;
14191;SDS011;7177;48.572;7.838;2023-11-21T00:30:03;10.57;;;3.43;;
14191;SDS011;7177;48.572;7.838;2023-11-21T00:32:32;10.10;;;3.27;;
14191;SDS011;7177;48.572;7.838;2023-11-21T00:34:58;11.80;;;3.00;;
14191;SDS011;7177;48.572;7.838;2023-11-21T00:37:24;10.47;;;2.80;;
14191;SDS011;7177;48.572;7.838;2023-11-21T00:39:50;5.47;;;2.70;;
14191;SDS011;7177;48.572;7.838;2023-11-21T00:42:15;6.60;;;2.53;;
14191;SDS011;7177;48.572;7.838;2023-11-21T00:44:41;10.87;;;2.83;;
14191;SDS011;7177;48.572;7.838;2023-11-21T00:47:07;4.97;;;2.47;;
14191;SDS011;7177;48.572;7.838;2023-11-21T00:49:33;6.67;;;2.83;;
14191;SDS011;7177;48.572;7.838;2023-11-21T00:51:59;6.63;;;2.93;;
14191;SDS011;7177;48.572;7.838;2023-11-21T00:54:25;13.17;;;3.27;;
14191;SDS011;7177;48.572;7.838;2023-11-21T00:56:52;3.50;;;2.57;;
14191;SDS011;7177;48.572;7.838;2023-11-21T00:59:17;13.33;;;2.63;;
14191;SDS011;7177;48.572;7.838;2023-11-21T01:01:43;7.97;;;2.77;;
14191;SDS011;7177;48.572;7.838;2023-11-21T01:04:09;12.97;;;2.70;;
14191;SDS011;7177;48.572;7.838;2023-11-21T01:06:35;7.23;;;2.73;;
14191;SDS011;7177;48.572;7.838;2023-11-21T01:09:00;8.73;;;2.50;;
14191;SDS011;7177;48.572;7.838;2023-11-21T01:11:26;6.80;;;2.60;;
14191;SDS011;7177;48.572;7.838;2023-11-21T01:13:51;11.97;;;2.93;;
14191;SDS011;7177;48.572;7.838;2023-11-21T01:16:18;9.03;;;2.50;;
14191;SDS011;7177;48.572;7.838;2023-11-21T01:18:43;9.60;;;3.13;;
14191;SDS011;7177;48.572;7.838;2023-11-21T01:21:09;21.37;;;3.43;;
14191;SDS011;7177;48.572;7.838;2023-11-21T01:23:35;7.50;;;2.30;;
14191;SDS011;7177;48.572;7.838;2023-11-21T01:26:00;7.97;;;2.83;;
14191;SDS011;7177;48.572;7.838;2023-11-21T01:28:26;11.40;;;2.63;;
14191;SDS011;7177;48.572;7.838;2023-11-21T01:30:52;8.97;;;2.67;;
14191;SDS011;7177;48.572;7.838;2023-11-21T01:33:21;4.13;;;2.10;;
14191;SDS011;7177;48.572;7.838;2023-11-21T01:35:47;8.93;;;2.87;;
14191;SDS011;7177;48.572;7.838;2023-11-21T01:38:13;7.10;;;2.73;;
14191;SDS011;7177;48.572;7.838;2023-11-21T01:40:40;6.73;;;2.50;;
14191;SDS011;7177;48.572;7.838;2023-11-21T01:43:05;6.47;;;2.33;;
14191;SDS011;7177;48.572;7.838;2023-11-21T01:45:31;7.67;;;2.37;;
14191;SDS011;7177;48.572;7.838;2023-11-21T01:47:58;7.47;;;2.80;;
14191;SDS011;7177;48.572;7.838;2023-11-21T01:50:25;6.90;;;2.13;;
14191;SDS011;7177;48.572;7.838;2023-11-21T01:52:51;7.17;;;2.47;;
14191;SDS011;7177;48.572;7.838;2023-11-21T01:55:17;8.83;;;2.40;;
14191;SDS011;7177;48.572;7.838;2023-11-21T01:57:43;4.60;;;2.83;;
14191;SDS011;7177;48.572;7.838;2023-11-21T02:00:10;13.17;;;3.03;;
14191;SDS011;7177;48.572;7.838;2023-11-21T02:02:45;7.50;;;2.60;;
14191;SDS011;7177;48.572;7.838;2023-11-21T02:05:11;7.67;;;2.47;;
14191;SDS011;7177;48.572;7.838;2023-11-21T02:07:39;11.60;;;2.20;;
14191;SDS011;7177;48.572;7.838;2023-11-21T02:10:06;9.40;;;3.43;;
14191;SDS011;7177;48.572;7.838;2023-11-21T02:12:32;4.87;;;2.37;;
14191;SDS011;7177;48.572;7.838;2023-11-21T02:15:00;6.13;;;2.57;;
14191;SDS011;7177;48.572;7.838;2023-11-21T02:17:35;11.13;;;2.97;;
14191;SDS011;7177;48.572;7.838;2023-11-21T02:20:01;8.30;;;2.40;;
14191;SDS011;7177;48.572;7.838;2023-11-21T02:22:30;7.43;;;2.43;;
14191;SDS011;7177;48.572;7.838;2023-11-21T02:24:57;7.07;;;2.30;;
14191;SDS011;7177;48.572;7.838;2023-11-21T02:27:23;5.43;;;2.23;;
14191;SDS011;7177;48.572;7.838;2023-11-21T02:29:49;5.50;;;2.80;;
14191;SDS011;7177;48.572;7.838;2023-11-21T02:32:15;6.00;;;2.60;;
14191;SDS011;7177;48.572;7.838;2023-11-21T02:34:44;6.40;;;2.47;;
14191;SDS011;7177;48.572;7.838;2023-11-21T02:37:09;8.70;;;2.70;;
14191;SDS011;7177;48.572;7.838;2023-11-21T02:39:35;10.20;;;2.90;;
14191;SDS011;7177;48.572;7.838;2023-11-21T02:42:00;6.37;;;2.43;;
14191;SDS011;7177;48.572;7.838;2023-11-21T02:44:26;5.57;;;2.67;;
14191;SDS011;7177;48.572;7.838;2023-11-21T02:46:51;7.23;;;2.90;;
14191;SDS011;7177;48.572;7.838;2023-11-21T02:49:17;6.17;;;2.43;;
14191;SDS011;7177;48.572;7.838;2023-11-21T02:51:42;8.27;;;3.00;;
14191;SDS011;7177;48.572;7.838;2023-11-21T02:54:08;5.10;;;2.37;;
14191;SDS011;7177;48.572;7.838;2023-11-21T02:56:34;6.73;;;1.93;;
14191;SDS011;7177;48.572;7.838;2023-11-21T02:58:59;4.93;;;2.53;;
14191;SDS011;7177;48.572;7.838;2023-11-21T03:01:26;5.73;;;2.40;;
14191;SDS011;7177;48.572;7.838;2023-11-21T03:03:52;5.97;;;2.70;;
14191;SDS011;7177;48.572;7.838;2023-11-21T03:06:18;5.20;;;2.50;;
14191;SDS011;7177;48.572;7.838;2023-11-21T03:08:44;7.33;;;2.27;;
14191;SDS011;7177;48.572;7.838;2023-11-21T03:11:10;4.80;;;2.10;;
14191;SDS011;7177;48.572;7.838;2023-11-21T03:13:35;9.30;;;2.60;;
14191;SDS011;7177;48.572;7.838;2023-11-21T03:16:01;4.40;;;2.17;;
14191;SDS011;7177;48.572;7.838;2023-11-21T03:18:26;5.63;;;2.20;;
14191;SDS011;7177;48.572;7.838;2023-11-21T03:20:54;4.13;;;2.23;;
14191;SDS011;7177;48.572;7.838;2023-11-21T03:23:19;9.77;;;2.60;;
14191;SDS011;7177;48.572;7.838;2023-11-21T03:25:45;5.87;;;2.30;;
14191;SDS011;7177;48.572;7.838;2023-11-21T03:28:10;7.03;;;2.63;;
14191;SDS011;7177;48.572;7.838;2023-11-21T03:30:36;7.03;;;2.80;;
14191;SDS011;7177;48.572;7.838;2023-11-21T03:33:01;8.90;;;2.87;;
14191;SDS011;7177;48.572;7.838;2023-11-21T03:35:27;6.17;;;2.87;;
14191;SDS011;7177;48.572;7.838;2023-11-21T03:37:52;11.57;;;2.73;;
14191;SDS011;7177;48.572;7.838;2023-11-21T03:40:18;8.87;;;2.67;;
14191;SDS011;7177;48.572;7.838;2023-11-21T03:42:46;4.80;;;2.80;;
14191;SDS011;7177;48.572;7.838;2023-11-21T03:45:12;8.33;;;2.90;;
14191;SDS011;7177;48.572;7.838;2023-11-21T03:47:37;5.27;;;2.73;;
14191;SDS011;7177;48.572;7.838;2023-11-21T03:50:03;6.03;;;2.97;;
14191;SDS011;7177;48.572;7.838;2023-11-21T03:52:29;6.03;;;2.90;;
14191;SDS011;7177;48.572;7.838;2023-11-21T03:54:55;5.13;;;2.70;;
14191;SDS011;7177;48.572;7.838;2023-11-21T03:57:20;6.97;;;3.10;;
14191;SDS011;7177;48.572;7.838;2023-11-21T03:59:46;8.37;;;3.07;;
14191;SDS011;7177;48.572;7.838;2023-11-21T04:02:12;4.00;;;2.30;;
14191;SDS011;7177;48.572;7.838;2023-11-21T04:04:37;8.37;;;3.20;;
14191;SDS011;7177;48.572;7.838;2023-11-21T04:07:03;5.53;;;2.50;;
14191;SDS011;7177;48.572;7.838;2023-11-21T04:09:29;8.10;;;2.83;;
14191;SDS011;7177;48.572;7.838;2023-11-21T04:11:55;8.20;;;3.00;;
14191;SDS011;7177;48.572;7.838;2023-11-21T04:14:20;5.77;;;2.90;;
14191;SDS011;7177;48.572;7.838;2023-11-21T04:16:46;6.20;;;2.83;;
14191;SDS011;7177;48.572;7.838;2023-11-21T04:19:11;7.20;;;3.00;;
14191;SDS011;7177;48.572;7.838;2023-11-21T04:21:40;7.53;;;3.13;;
14191;SDS011;7177;48.572;7.838;2023-11-21T04:24:07;9.03;;;2.80;;
14191;SDS011;7177;48.572;7.838;2023-11-21T04:26:32;7.90;;;3.17;;
14191;SDS011;7177;48.572;7.838;2023-11-21T04:28:58;8.63;;;3.03;;
14191;SDS011;7177;48.572;7.838;2023-11-21T04:31:24;8.87;;;3.33;;
14191;SDS011;7177;48.572;7.838;2023-11-21T04:33:49;7.13;;;3.10;;
14191;SDS011;7177;48.572;7.838;2023-11-21T04:36:15;6.13;;;2.97;;
14191;SDS011;7177;48.572;7.838;2023-11-21T04:38:40;5.93;;;3.10;;
14191;SDS011;7177;48.572;7.838;2023-11-21T04:41:06;8.00;;;3.20;;
14191;SDS011;7177;48.572;7.838;2023-11-21T04:43:32;9.03;;;3.63;;
14191;SDS011;7177;48.572;7.838;2023-11-21T04:45:57;9.93;;;3.07;;
14191;SDS011;7177;48.572;7.838;2023-11-21T04:48:23;6.77;;;2.83;;
14191;SDS011;7177;48.572;7.838;2023-11-21T04:50:48;15.53;;;3.40;;
14191;SDS011;7177;48.572;7.838;2023-11-21T04:53:14;10.43;;;3.30;;
14191;SDS011;7177;48.572;7.838;2023-11-21T04:55:39;8.90;;;3.23;;
14191;SDS011;7177;48.572;7.838;2023-11-21T04:58:05;6.20;;;2.83;;
14191;SDS011;7177;48.572;7.838;2023-11-21T05:00:31;5.03;;;2.83;;
14191;SDS011;7177;48.572;7.838;2023-11-21T05:02:57;5.70;;;3.07;;
14191;SDS011;7177;48.572;7.838;2023-11-21T05:05:22;5.03;;;2.70;;
14191;SDS011;7177;48.572;7.838;2023-11-21T05:07:49;7.17;;;3.00;;
14191;SDS011;7177;48.572;7.838;2023-11-21T05:10:14;9.27;;;3.17;;
14191;SDS011;7177;48.572;7.838;2023-11-21T05:12:40;8.03;;;3.20;;
14191;SDS011;7177;48.572;7.838;2023-11-21T05:15:07;7.87;;;3.00;;
14191;SDS011;7177;48.572;7.838;2023-11-21T05:17:36;5.60;;;2.80;;
14191;SDS011;7177;48.572;7.838;2023-11-21T05:20:04;5.33;;;2.43;;
14191;SDS011;7177;48.572;7.838;2023-11-21T05:22:33;8.07;;;2.90;;
14191;SDS011;7177;48.572;7.838;2023-11-21T05:24:59;6.10;;;3.23;;
14191;SDS011;7177;48.572;7.838;2023-11-21T05:27:25;5.27;;;2.63;;
14191;SDS011;7177;48.572;7.838;2023-11-21T05:29:50;4.73;;;2.87;;
14191;SDS011;7177;48.572;7.838;2023-11-21T05:32:16;5.60;;;3.23;;
14191;SDS011;7177;48.572;7.838;2023-11-21T05:34:42;8.90;;;3.03;;
14191;SDS011;7177;48.572;7.838;2023-11-21T05:37:08;5.20;;;2.40;;
14191;SDS011;7177;48.572;7.838;2023-11-21T05:39:33;4.77;;;2.47;;
14191;SDS011;7177;48.572;7.838;2023-11-21T05:41:59;8.87;;;2.60;;
14191;SDS011;7177;48.572;7.838;2023-11-21T05:44:25;8.00;;;2.70;;
14191;SDS011;7177;48.572;7.838;2023-11-21T05:46:50;5.17;;;2.40;;
14191;SDS011;7177;48.572;7.838;2023-11-21T05:49:16;4.93;;;2.60;;
14191;SDS011;7177;48.572;7.838;2023-11-21T05:51:41;7.33;;;2.87;;
14191;SDS011;7177;48.572;7.838;2023-11-21T05:54:07;5.30;;;2.50;;
14191;SDS011;7177;48.572;7.838;2023-11-21T05:56:33;6.53;;;2.90;;
14191;SDS011;7177;48.572;7.838;2023-11-21T05:58:58;6.27;;;2.87;;
14191;SDS011;7177;48.572;7.838;2023-11-21T06:01:24;3.97;;;2.57;;
14191;SDS011;7177;48.572;7.838;2023-11-21T06:03:53;4.90;;;2.70;;
14191;SDS011;7177;48.572;7.838;2023-11-21T06:06:20;4.97;;;3.10;;
14191;SDS011;7177;48.572;7.838;2023-11-21T06:08:47;6.20;;;3.17;;
14191;SDS011;7177;48.572;7.838;2023-11-21T06:11:15;6.97;;;3.00;;
14191;SDS011;7177;48.572;7.838;2023-11-21T06:13:41;4.30;;;3.10;;
14191;SDS011;7177;48.572;7.838;2023-11-21T06:16:07;3.73;;;2.50;;
14191;SDS011;7177;48.572;7.838;2023-11-21T06:18:33;5.07;;;2.47;;
14191;SDS011;7177;48.572;7.838;2023-11-21T06:20:59;6.33;;;2.70;;
14191;SDS011;7177;48.572;7.838;2023-11-21T06:23:25;6.33;;;2.50;;
14191;SDS011;7177;48.572;7.838;2023-11-21T06:25:51;5.10;;;2.43;;
14191;SDS011;7177;48.572;7.838;2023-11-21T06:28:17;4.47;;;2.47;;
14191;SDS011;7177;48.572;7.838;2023-11-21T06:30:43;3.80;;;2.53;;
14191;SDS011;7177;48.572;7.838;2023-11-21T06:33:10;3.33;;;2.33;;
14191;SDS011;7177;48.572;7.838;2023-11-21T06:35:36;6.37;;;2.40;;
14191;SDS011;7177;48.572;7.838;2023-11-21T06:38:01;4.20;;;2.27;;
14191;SDS011;7177;48.572;7.838;2023-11-21T06:40:27;4.87;;;2.60;;
14191;SDS011;7177;48.572;7.838;2023-11-21T06:42:53;4.50;;;2.63;;
14191;SDS011;7177;48.572;7.838;2023-11-21T06:45:19;7.77;;;3.30;;
14191;SDS011;7177;48.572;7.838;2023-11-21T06:47:45;3.37;;;2.20;;
14191;SDS011;7177;48.572;7.838;2023-11-21T06:50:10;6.40;;;2.90;;
14191;SDS011;7177;48.572;7.838;2023-11-21T06:52:36;3.40;;;2.53;;
14191;SDS011;7177;48.572;7.838;2023-11-21T06:55:01;4.40;;;2.50;;
14191;SDS011;7177;48.572;7.838;2023-11-21T06:57:28;3.47;;;2.60;;
14191;SDS011;7177;48.572;7.838;2023-11-21T06:59:53;5.03;;;2.43;;
14191;SDS011;7177;48.572;7.838;2023-11-21T07:02:19;5.37;;;2.70;;
14191;SDS011;7177;48.572;7.838;2023-11-21T07:04:45;5.70;;;2.30;;
14191;SDS011;7177;48.572;7.838;2023-11-21T07:07:11;5.17;;;2.50;;
14191;SDS011;7177;48.572;7.838;2023-11-21T07:09:37;2.67;;;2.37;;
14191;SDS011;7177;48.572;7.838;2023-11-21T07:12:03;6.53;;;3.40;;
14191;SDS011;7177;48.572;7.838;2023-11-21T07:14:31;7.60;;;3.50;;
14191;SDS011;7177;48.572;7.838;2023-11-21T07:16:57;9.30;;;3.83;;
14191;SDS011;7177;48.572;7.838;2023-11-21T07:19:22;7.13;;;3.63;;
14191;SDS011;7177;48.572;7.838;2023-11-21T07:21:48;6.30;;;4.23;;
14191;SDS011;7177;48.572;7.838;2023-11-21T07:24:16;6.20;;;4.10;;
14191;SDS011;7177;48.572;7.838;2023-11-21T07:26:41;9.63;;;4.43;;
14191;SDS011;7177;48.572;7.838;2023-11-21T07:29:08;5.93;;;4.03;;
14191;SDS011;7177;48.572;7.838;2023-11-21T07:31:33;6.87;;;4.13;;
14191;SDS011;7177;48.572;7.838;2023-11-21T07:34:02;7.70;;;4.60;;
14191;SDS011;7177;48.572;7.838;2023-11-21T07:36:27;10.77;;;5.13;;
14191;SDS011;7177;48.572;7.838;2023-11-21T07:38:53;6.30;;;3.83;;
14191;SDS011;7177;48.572;7.838;2023-11-21T07:41:19;8.07;;;4.67;;
14191;SDS011;7177;48.572;7.838;2023-11-21T07:43:45;9.90;;;5.33;;
14191;SDS011;7177;48.572;7.838;2023-11-21T07:46:11;6.73;;;4.80;;
14191;SDS011;7177;48.572;7.838;2023-11-21T07:48:40;7.53;;;5.47;;
14191;SDS011;7177;48.572;7.838;2023-11-21T07:51:07;9.30;;;5.30;;
14191;SDS011;7177;48.572;7.838;2023-11-21T07:53:34;8.30;;;5.03;;
14191;SDS011;7177;48.572;7.838;2023-11-21T07:56:04;8.30;;;4.73;;
14191;SDS011;7177;48.572;7.838;2023-11-21T07:58:31;6.80;;;5.20;;
14191;SDS011;7177;48.572;7.838;2023-11-21T08:00:58;7.70;;;5.20;;
14191;SDS011;7177;48.572;7.838;2023-11-21T08:03:24;5.57;;;4.50;;
14191;SDS011;7177;48.572;7.838;2023-11-21T08:05:51;11.73;;;5.10;;
14191;SDS011;7177;48.572;7.838;2023-11-21T08:08:17;8.17;;;5.10;;
14191;SDS011;7177;48.572;7.838;2023-11-21T08:10:43;6.33;;;5.13;;
14191;SDS011;7177;48.572;7.838;2023-11-21T08:13:21;8.90;;;6.43;;
14191;SDS011;7177;48.572;7.838;2023-11-21T08:15:50;9.83;;;5.70;;
14191;SDS011;7177;48.572;7.838;2023-11-21T08:18:18;7.23;;;5.43;;
14191;SDS011;7177;48.572;7.838;2023-11-21T08:20:44;6.77;;;5.37;;
14191;SDS011;7177;48.572;7.838;2023-11-21T08:23:12;7.00;;;5.70;;
14191;SDS011;7177;48.572;7.838;2023-11-21T08:25:44;9.73;;;5.43;;
14191;SDS011;7177;48.572;7.838;2023-11-21T08:28:10;8.03;;;5.73;;
14191;SDS011;7177;48.572;7.838;2023-11-21T08:30:35;8.70;;;5.43;;
14191;SDS011;7177;48.572;7.838;2023-11-21T08:33:01;8.60;;;5.20;;
14191;SDS011;7177;48.572;7.838;2023-11-21T08:35:28;6.43;;;5.20;;
14191;SDS011;7177;48.572;7.838;2023-11-21T08:37:53;8.03;;;5.47;;
14191;SDS011;7177;48.572;7.838;2023-11-21T08:40:20;9.57;;;5.60;;
14191;SDS011;7177;48.572;7.838;2023-11-21T08:42:46;6.93;;;4.97;;
14191;SDS011;7177;48.572;7.838;2023-11-21T08:45:12;11.03;;;6.27;;
14191;SDS011;7177;48.572;7.838;2023-11-21T08:47:38;8.97;;;5.23;;
14191;SDS011;7177;48.572;7.838;2023-11-21T08:50:05;7.87;;;5.60;;
14191;SDS011;7177;48.572;7.838;2023-11-21T08:52:32;7.87;;;5.67;;
14191;SDS011;7177;48.572;7.838;2023-11-21T08:54:58;7.27;;;5.80;;
14191;SDS011;7177;48.572;7.838;2023-11-21T08:57:27;8.33;;;5.27;;
14191;SDS011;7177;48.572;7.838;2023-11-21T08:59:53;6.10;;;5.40;;
14191;SDS011;7177;48.572;7.838;2023-11-21T09:02:25;7.40;;;5.40;;
14191;SDS011;7177;48.572;7.838;2023-11-21T09:04:51;9.60;;;6.20;;
14191;SDS011;7177;48.572;7.838;2023-11-21T09:07:18;7.40;;;6.07;;
14191;SDS011;7177;48.572;7.838;2023-11-21T09:09:45;7.83;;;5.77;;
14191;SDS011;7177;48.572;7.838;2023-11-21T09:12:11;7.37;;;5.67;;
14191;SDS011;7177;48.572;7.838;2023-11-21T09:14:37;9.07;;;5.90;;
14191;SDS011;7177;48.572;7.838;2023-11-21T09:17:03;8.47;;;5.47;;
14191;SDS011;7177;48.572;7.838;2023-11-21T09:19:29;11.47;;;6.80;;
14191;SDS011;7177;48.572;7.838;2023-11-21T09:21:54;8.93;;;6.60;;
14191;SDS011;7177;48.572;7.838;2023-11-21T09:24:22;8.87;;;6.37;;
14191;SDS011;7177;48.572;7.838;2023-11-21T09:26:47;8.90;;;6.23;;
14191;SDS011;7177;48.572;7.838;2023-11-21T09:29:13;18.10;;;10.43;;
14191;SDS011;7177;48.572;7.838;2023-11-21T09:31:38;14.43;;;8.93;;
14191;SDS011;7177;48.572;7.838;2023-11-21T09:34:04;11.60;;;7.33;;
14191;SDS011;7177;48.572;7.838;2023-11-21T09:36:31;14.43;;;6.83;;
14191;SDS011;7177;48.572;7.838;2023-11-21T09:38:58;10.53;;;7.87;;
14191;SDS011;7177;48.572;7.838;2023-11-21T09:41:42;11.53;;;8.10;;
14191;SDS011;7177;48.572;7.838;2023-11-21T09:44:12;10.97;;;8.20;;
14191;SDS011;7177;48.572;7.838;2023-11-21T09:46:42;8.50;;;6.87;;
14191;SDS011;7177;48.572;7.838;2023-11-21T09:49:11;9.20;;;7.10;;
14191;SDS011;7177;48.572;7.838;2023-11-21T09:51:42;11.40;;;8.13;;
14191;SDS011;7177;48.572;7.838;2023-11-21T09:54:08;10.27;;;7.90;;
14191;SDS011;7177;48.572;7.838;2023-11-21T09:56:37;8.93;;;7.10;;
14191;SDS011;7177;48.572;7.838;2023-11-21T09:59:03;11.00;;;7.77;;
14191;SDS011;7177;48.572;7.838;2023-11-21T10:01:32;10.13;;;7.47;;
14191;SDS011;7177;48.572;7.838;2023-11-21T10:03:58;11.40;;;8.93;;
14191;SDS011;7177;48.572;7.838;2023-11-21T10:06:24;9.83;;;8.07;;
14191;SDS011;7177;48.572;7.838;2023-11-21T10:08:51;10.90;;;9.20;;
14191;SDS011;7177;48.572;7.838;2023-11-21T10:11:20;11.00;;;8.93;;
14191;SDS011;7177;48.572;7.838;2023-11-21T10:13:49;15.00;;;9.13;;
14191;SDS011;7177;48.572;7.838;2023-11-21T10:16:19;11.17;;;9.13;;
14191;SDS011;7177;48.572;7.838;2023-11-21T10:18:46;11.83;;;8.57;;
14191;SDS011;7177;48.572;7.838;2023-11-21T10:21:17;9.87;;;7.43;;
14191;SDS011;7177;48.572;7.838;2023-11-21T10:23:43;8.20;;;6.73;;
14191;SDS011;7177;48.572;7.838;2023-11-21T10:26:09;7.10;;;5.50;;
14191;SDS011;7177;48.572;7.838;2023-11-21T10:28:41;7.60;;;5.23;;
14191;SDS011;7177;48.572;7.838;2023-11-21T10:31:20;5.20;;;4.53;;
14191;SDS011;7177;48.572;7.838;2023-11-21T10:33:46;4.33;;;3.80;;
14191;SDS011;7177;48.572;7.838;2023-11-21T10:36:11;4.53;;;4.07;;
14191;SDS011;7177;48.572;7.838;2023-11-21T10:38:42;4.57;;;4.03;;
14191;SDS011;7177;48.572;7.838;2023-11-21T10:41:10;5.50;;;4.43;;
14191;SDS011;7177;48.572;7.838;2023-11-21T10:43:37;5.40;;;4.07;;
14191;SDS011;7177;48.572;7.838;2023-11-21T10:46:03;7.37;;;3.90;;
14191;SDS011;7177;48.572;7.838;2023-11-21T10:48:30;10.33;;;7.73;;
14191;SDS011;7177;48.572;7.838;2023-11-21T10:50:58;12.13;;;7.97;;
14191;SDS011;7177;48.572;7.838;2023-11-21T10:53:23;4.73;;;4.17;;
14191;SDS011;7177;48.572;7.838;2023-11-21T10:56:00;4.80;;;3.80;;
14191;SDS011;7177;48.572;7.838;2023-11-21T10:58:32;4.90;;;3.50;;
14191;SDS011;7177;48.572;7.838;2023-11-21T11:00:58;4.37;;;2.60;;
14191;SDS011;7177;48.572;7.838;2023-11-21T11:03:25;2.67;;;1.70;;
14191;SDS011;7177;48.572;7.838;2023-11-21T11:05:51;4.00;;;2.17;;
14191;SDS011;7177;48.572;7.838;2023-11-21T11:08:20;3.60;;;2.90;;
14191;SDS011;7177;48.572;7.838;2023-11-21T11:10:51;7.07;;;4.57;;
14191;SDS011;7177;48.572;7.838;2023-11-21T11:13:17;2.27;;;2.07;;
14191;SDS011;7177;48.572;7.838;2023-11-21T11:15:43;2.37;;;1.80;;
14191;SDS011;7177;48.572;7.838;2023-11-21T11:18:12;4.50;;;1.73;;
14191;SDS011;7177;48.572;7.838;2023-11-21T11:20:38;2.50;;;1.80;;
14191;SDS011;7177;48.572;7.838;2023-11-21T11:29:29;2.27;;;2.07;;
14191;SDS011;7177;48.572;7.838;2023-11-21T11:32:12;2.87;;;2.20;;
14191;SDS011;7177;48.572;7.838;2023-11-21T11:34:56;4.07;;;2.87;;
14191;SDS011;7177;48.572;7.838;2023-11-21T11:37:35;3.00;;;2.57;;
14191;SDS011;7177;48.572;7.838;2023-11-21T11:40:00;3.80;;;2.47;;
14191;SDS011;7177;48.572;7.838;2023-11-21T11:42:26;2.57;;;2.33;;
14191;SDS011;7177;48.572;7.838;2023-11-21T11:44:52;4.73;;;2.60;;
14191;SDS011;7177;48.572;7.838;2023-11-21T11:47:20;2.63;;;2.23;;
14191;SDS011;7177;48.572;7.838;2023-11-21T11:52:45;3.27;;;2.87;;
14191;SDS011;7177;48.572;7.838;2023-11-21T11:55:12;3.97;;;2.80;;
14191;SDS011;7177;48.572;7.838;2023-11-21T11:57:42;3.27;;;2.97;;
14191;SDS011;7177;48.572;7.838;2023-11-21T12:00:11;2.77;;;2.53;;
14191;SDS011;7177;48.572;7.838;2023-11-21T12:05:22;4.60;;;3.57;;
14191;SDS011;7177;48.572;7.838;2023-11-21T12:07:51;3.20;;;2.90;;
14191;SDS011;7177;48.572;7.838;2023-11-21T12:10:19;3.93;;;2.70;;
14191;SDS011;7177;48.572;7.838;2023-11-21T12:12:50;3.37;;;2.60;;
14191;SDS011;7177;48.572;7.838;2023-11-21T12:15:17;3.77;;;2.90;;
14191;SDS011;7177;48.572;7.838;2023-11-21T12:17:44;5.23;;;2.60;;
14191;SDS011;7177;48.572;7.838;2023-11-21T12:20:11;2.50;;;2.30;;
14191;SDS011;7177;48.572;7.838;2023-11-21T12:22:43;3.13;;;2.43;;
14191;SDS011;7177;48.572;7.838;2023-11-21T12:25:12;3.50;;;2.47;;
14191;SDS011;7177;48.572;7.838;2023-11-21T12:27:48;2.93;;;2.57;;
14191;SDS011;7177;48.572;7.838;2023-11-21T12:30:16;3.30;;;2.57;;
14191;SDS011;7177;48.572;7.838;2023-11-21T12:32:43;2.57;;;2.10;;
14191;SDS011;7177;48.572;7.838;2023-11-21T12:35:12;3.10;;;2.30;;
14191;SDS011;7177;48.572;7.838;2023-11-21T12:37:38;3.67;;;2.73;;
14191;SDS011;7177;48.572;7.838;2023-11-21T12:40:05;2.87;;;2.40;;
14191;SDS011;7177;48.572;7.838;2023-11-21T12:42:37;11.97;;;8.43;;
14191;SDS011;7177;48.572;7.838;2023-11-21T12:45:38;3.40;;;2.70;;
14191;SDS011;7177;48.572;7.838;2023-11-21T12:47:59;5.53;;;2.77;;
14191;SDS011;7177;48.572;7.838;2023-11-21T12:50:28;3.13;;;2.83;;
14191;SDS011;7177;48.572;7.838;2023-11-21T12:53:00;7.90;;;6.33;;
14191;SDS011;7177;48.572;7.838;2023-11-21T12:55:29;8.83;;;7.03;;
14191;SDS011;7177;48.572;7.838;2023-11-21T12:57:56;7.10;;;6.40;;
14191;SDS011;7177;48.572;7.838;2023-11-21T13:00:31;11.07;;;10.07;;
14191;SDS011;7177;48.572;7.838;2023-11-21T13:03:01;18.40;;;15.50;;
14191;SDS011;7177;48.572;7.838;2023-11-21T13:07:56;10.47;;;9.37;;
14191;SDS011;7177;48.572;7.838;2023-11-21T13:10:26;5.80;;;5.20;;
14191;SDS011;7177;48.572;7.838;2023-11-21T13:12:55;6.50;;;5.57;;
14191;SDS011;7177;48.572;7.838;2023-11-21T13:15:25;10.10;;;9.03;;
14191;SDS011;7177;48.572;7.838;2023-11-21T13:17:52;5.77;;;5.17;;
14191;SDS011;7177;48.572;7.838;2023-11-21T13:20:18;8.03;;;4.43;;
14191;SDS011;7177;48.572;7.838;2023-11-21T13:25:11;4.73;;;3.63;;
14191;SDS011;7177;48.572;7.838;2023-11-21T13:27:36;5.27;;;3.13;;
14191;SDS011;7177;48.572;7.838;2023-11-21T13:30:02;3.80;;;3.40;;
14191;SDS011;7177;48.572;7.838;2023-11-21T13:32:28;3.67;;;3.20;;
14191;SDS011;7177;48.572;7.838;2023-11-21T13:34:54;4.30;;;2.77;;
14191;SDS011;7177;48.572;7.838;2023-11-21T13:37:20;3.27;;;2.43;;
14191;SDS011;7177;48.572;7.838;2023-11-21T13:39:45;2.80;;;2.50;;
14191;SDS011;7177;48.572;7.838;2023-11-21T13:42:14;2.90;;;2.03;;
14191;SDS011;7177;48.572;7.838;2023-11-21T13:44:41;2.70;;;2.33;;
14191;SDS011;7177;48.572;7.838;2023-11-21T13:47:11;2.60;;;1.90;;
14191;SDS011;7177;48.572;7.838;2023-11-21T13:49:37;2.33;;;2.00;;
14191;SDS011;7177;48.572;7.838;2023-11-21T13:52:05;2.03;;;1.70;;
14191;SDS011;7177;48.572;7.838;2023-11-21T13:54:32;2.50;;;2.30;;
14191;SDS011;7177;48.572;7.838;2023-11-21T13:56:58;3.07;;;2.00;;
14191;SDS011;7177;48.572;7.838;2023-11-21T13:59:25;2.43;;;1.90;;
14191;SDS011;7177;48.572;7.838;2023-11-21T14:01:53;2.00;;;1.80;;
14191;SDS011;7177;48.572;7.838;2023-11-21T14:04:20;1.93;;;1.73;;
14191;SDS011;7177;48.572;7.838;2023-11-21T14:06:59;2.23;;;2.03;;
14191;SDS011;7177;48.572;7.838;2023-11-21T14:09:35;3.27;;;2.50;;
14191;SDS011;7177;48.572;7.838;2023-11-21T14:12:08;2.73;;;2.50;;
14191;SDS011;7177;48.572;7.838;2023-11-21T14:14:37;3.30;;;3.00;;
14191;SDS011;7177;48.572;7.838;2023-11-21T14:17:04;3.00;;;2.70;;
14191;SDS011;7177;48.572;7.838;2023-11-21T14:19:32;4.23;;;2.63;;
14191;SDS011;7177;48.572;7.838;2023-11-21T14:21:58;3.07;;;2.57;;
14191;SDS011;7177;48.572;7.838;2023-11-21T14:24:24;5.63;;;2.50;;
14191;SDS011;7177;48.572;7.838;2023-11-21T14:26:50;2.43;;;2.20;;
14191;SDS011;7177;48.572;7.838;2023-11-21T14:29:16;3.03;;;2.70;;
14191;SDS011;7177;48.572;7.838;2023-11-21T14:31:45;5.03;;;2.97;;
14191;SDS011;7177;48.572;7.838;2023-11-21T14:34:11;8.73;;;6.93;;
14191;SDS011;7177;48.572;7.838;2023-11-21T14:36:37;6.20;;;5.60;;
14191;SDS011;7177;48.572;7.838;2023-11-21T14:39:04;5.73;;;4.40;;
14191;SDS011;7177;48.572;7.838;2023-11-21T14:41:41;4.20;;;3.10;;
14191;SDS011;7177;48.572;7.838;2023-11-21T14:44:07;3.20;;;2.90;;
14191;SDS011;7177;48.572;7.838;2023-11-21T14:46:36;3.10;;;2.67;;
14191;SDS011;7177;48.572;7.838;2023-11-21T14:49:04;3.53;;;2.90;;
14191;SDS011;7177;48.572;7.838;2023-11-21T14:51:44;3.47;;;2.50;;
14191;SDS011;7177;48.572;7.838;2023-11-21T14:54:31;3.57;;;3.10;;
14191;SDS011;7177;48.572;7.838;2023-11-21T14:57:10;4.77;;;2.67;;
14191;SDS011;7177;48.572;7.838;2023-11-21T14:59:37;4.80;;;3.60;;
14191;SDS011;7177;48.572;7.838;2023-11-21T15:02:08;6.37;;;3.47;;
14191;SDS011;7177;48.572;7.838;2023-11-21T15:04:41;4.27;;;3.73;;
14191;SDS011;7177;48.572;7.838;2023-11-21T15:07:07;3.77;;;2.60;;
14191;SDS011;7177;48.572;7.838;2023-11-21T15:09:33;5.80;;;3.60;;
14191;SDS011;7177;48.572;7.838;2023-11-21T15:11:59;4.67;;;2.90;;
14191;SDS011;7177;48.572;7.838;2023-11-21T15:14:55;4.87;;;2.90;;
14191;SDS011;7177;48.572;7.838;2023-11-21T15:17:22;5.77;;;2.97;;